Portada
METAR-TAF:

METAR-TAF

Aeropuertos :

Rafha, Arabia Saudita

latitud: 29-37N, longitud: 043-29E, altitud: 449 m

Observación

El informe se hizo hace 16 minutos, a las 21:00 UTC
Viento 14 kt del sureste
Temperatura 17°C
Humedad 42%
Presión 1015 hPa
Visibilidad 10 km o más
sin nubes por debajo de 1500 m y sin presencia de cumulonimbus.

METAR: OERF 032100Z 14014KT CAVOK 17/04 Q1015 NOSIG

Hora: 00:16 (21:16 UTC)

Pronóstico

El informe se hizo hace 10 horas y 16 minutos, a las 11:00 UTC
Pronóstico válido del 03 a las 12 UTC al 04 a las 18 UTC
Viento 16 kt del sureste
Visibilidad: 9000 m
Temporalmente
del 03 a las 12 UTC al 03 a las 18 UTC
Visibilidad: 4000 m
Escasas nubes a una altura de 3500 ft, Cumulonimbus.
Ventisca alta de polvo, tormenta, lluvia

TAF: OERF 031100Z 0312/0418 14016KT 9000 NSC TEMPO 0312/0318 4000 BLDU TSRA FEW035CB

Observaciones y pronósticos meteorológicos de más de 4000 aeropuertos (mensajes METAR y TAF).

Los puntos amarillos y rojos representan las estaciones disponibles.

Ponga el ratón en el punto deseado para ver el nombre de la estación.

Haga clic para ver las observaciones y los pronósticos meteorológicos.

Para cambiar el mapa : haga clic en los botones verdes con una cruz de color negro para hacer un zoom, en el botón verde con un guión para alejar o en las flechas verdes para mapas adyacentes.


METAR-TAF: